Hlavní strana
METAR-TAF:

METAR-TAF

Letiště :

Letiště Orio al Serio

Bergamo, Itálie

zeměpisná šířka: 45-40N, zeměpisná délka: 009-42E, výška: 238 m

Aktuální stav počasí

Zpráva byla vytvořena před 26 minutami, v 06:20 UTC
vítr z různých směrů 2 kt
Teplota 24°C
Vlhkost vzduchu 65%
Tlak 1016 hPa
Viditelnost 10 km a více
Žádná oblačnost pod 1500 m, nevyskytují se cumulonimby.

METAR: LIME 190620Z VRB02KT CAVOK 24/17 Q1016

Čas: 08:46 (06:46 UTC)

Předpověď počasí

Zpráva byla vytvořena před 1 hodinou a 46 minutami, v 05:00 UTC
Předpověď platná od 19 v 06 UTC do 20 v 06 UTC
vítr z různých směrů 5 kt
Viditelnost 10 km a více
Skoro jasno ve výšce 5000 ft

TAF: LIME 190500Z 1906/2006 VRB05KT 9999 FEW050

Stav a předpovědi počasí z více než 4 000 letišť (zprávy METAR a TAF).

Červené a žluté tečky na mapě představují dostupné meteorologické stanice.

Když kurzor umístíte na tečku, zobrazí se název stanice.

Pak kliknutím zobrazíte stav a předpověď počasí.

Chcete-li změnit mapu, kliknutím na zelené tlačítko se znaménkem +mapu přiblížíte, kliknutím na zelené tlačítko se znaménkem – mapu oddálíte a kliknutím na zelené šipky přejdete na sousední mapy.


METAR-TAF: